sensor_id;sensor_type;location;lat;lon;timestamp;temperature;humidity
32706;DHT22;19094;50.972;3.538;2022-07-15T00:02:13;24.30;51.40
32706;DHT22;19094;50.972;3.538;2022-07-15T00:04:39;24.30;51.50
32706;DHT22;19094;50.972;3.538;2022-07-15T00:07:05;24.20;51.50
32706;DHT22;19094;50.972;3.538;2022-07-15T00:09:33;24.20;51.60
32706;DHT22;19094;50.972;3.538;2022-07-15T00:12:17;24.20;51.60
32706;DHT22;19094;50.972;3.538;2022-07-15T00:14:43;24.20;51.70
32706;DHT22;19094;50.972;3.538;2022-07-15T00:17:10;24.20;51.60
32706;DHT22;19094;50.972;3.538;2022-07-15T00:19:35;24.20;51.60
32706;DHT22;19094;50.972;3.538;2022-07-15T00:22:02;24.10;51.70
32706;DHT22;19094;50.972;3.538;2022-07-15T00:24:28;24.10;51.70
32706;DHT22;19094;50.972;3.538;2022-07-15T00:26:54;24.10;51.70
32706;DHT22;19094;50.972;3.538;2022-07-15T00:29:20;24.10;51.70
32706;DHT22;19094;50.972;3.538;2022-07-15T00:31:46;24.10;51.70
32706;DHT22;19094;50.972;3.538;2022-07-15T00:34:12;24.10;51.70
32706;DHT22;19094;50.972;3.538;2022-07-15T00:36:37;24.10;51.80
32706;DHT22;19094;50.972;3.538;2022-07-15T00:39:04;24.10;51.80
32706;DHT22;19094;50.972;3.538;2022-07-15T00:41:40;24.10;51.70
32706;DHT22;19094;50.972;3.538;2022-07-15T00:44:06;24.10;51.00
32706;DHT22;19094;50.972;3.538;2022-07-15T00:46:32;24.00;51.80
32706;DHT22;19094;50.972;3.538;2022-07-15T00:48:58;24.00;51.90
32706;DHT22;19094;50.972;3.538;2022-07-15T00:51:25;24.00;51.80
32706;DHT22;19094;50.972;3.538;2022-07-15T00:53:52;24.00;51.90
32706;DHT22;19094;50.972;3.538;2022-07-15T00:56:21;24.00;51.90
32706;DHT22;19094;50.972;3.538;2022-07-15T00:58:49;24.00;52.00
32706;DHT22;19094;50.972;3.538;2022-07-15T01:01:19;23.90;51.80
32706;DHT22;19094;50.972;3.538;2022-07-15T01:03:47;23.90;51.60
32706;DHT22;19094;50.972;3.538;2022-07-15T01:06:13;23.90;52.00
32706;DHT22;19094;50.972;3.538;2022-07-15T01:08:39;23.90;52.00
32706;DHT22;19094;50.972;3.538;2022-07-15T01:11:05;23.90;51.90
32706;DHT22;19094;50.972;3.538;2022-07-15T01:13:32;23.90;51.80
32706;DHT22;19094;50.972;3.538;2022-07-15T01:15:58;23.90;52.00
32706;DHT22;19094;50.972;3.538;2022-07-15T01:18:24;23.90;52.00
32706;DHT22;19094;50.972;3.538;2022-07-15T01:20:51;23.90;51.90
32706;DHT22;19094;50.972;3.538;2022-07-15T01:23:18;23.90;52.00
32706;DHT22;19094;50.972;3.538;2022-07-15T01:25:44;23.80;52.00
32706;DHT22;19094;50.972;3.538;2022-07-15T01:28:10;23.80;52.00
32706;DHT22;19094;50.972;3.538;2022-07-15T01:30:37;23.80;51.70
32706;DHT22;19094;50.972;3.538;2022-07-15T01:33:03;23.80;52.00
32706;DHT22;19094;50.972;3.538;2022-07-15T01:35:28;23.80;51.70
32706;DHT22;19094;50.972;3.538;2022-07-15T01:37:54;23.80;52.10
32706;DHT22;19094;50.972;3.538;2022-07-15T01:40:20;23.70;51.80
32706;DHT22;19094;50.972;3.538;2022-07-15T01:42:46;23.70;52.10
32706;DHT22;19094;50.972;3.538;2022-07-15T01:45:12;23.70;51.80
32706;DHT22;19094;50.972;3.538;2022-07-15T01:47:46;23.70;52.00
32706;DHT22;19094;50.972;3.538;2022-07-15T01:50:13;23.70;52.00
32706;DHT22;19094;50.972;3.538;2022-07-15T01:52:39;23.70;52.10
32706;DHT22;19094;50.972;3.538;2022-07-15T01:55:06;23.70;51.80
32706;DHT22;19094;50.972;3.538;2022-07-15T01:57:32;23.70;51.90
32706;DHT22;19094;50.972;3.538;2022-07-15T01:59:59;23.70;52.10
32706;DHT22;19094;50.972;3.538;2022-07-15T02:02:25;23.70;51.80
32706;DHT22;19094;50.972;3.538;2022-07-15T02:04:51;23.70;51.90
32706;DHT22;19094;50.972;3.538;2022-07-15T02:07:17;23.60;51.80
32706;DHT22;19094;50.972;3.538;2022-07-15T02:09:43;23.60;51.70
32706;DHT22;19094;50.972;3.538;2022-07-15T02:12:08;23.60;51.90
32706;DHT22;19094;50.972;3.538;2022-07-15T02:14:35;23.60;51.80
32706;DHT22;19094;50.972;3.538;2022-07-15T02:17:01;23.60;52.10
32706;DHT22;19094;50.972;3.538;2022-07-15T02:19:28;23.60;52.10
32706;DHT22;19094;50.972;3.538;2022-07-15T02:21:53;23.60;51.90
32706;DHT22;19094;50.972;3.538;2022-07-15T02:24:19;23.50;52.00
32706;DHT22;19094;50.972;3.538;2022-07-15T02:26:47;23.50;51.70
32706;DHT22;19094;50.972;3.538;2022-07-15T02:29:14;23.50;51.90
32706;DHT22;19094;50.972;3.538;2022-07-15T02:31:40;23.50;51.90
32706;DHT22;19094;50.972;3.538;2022-07-15T02:34:05;23.50;51.90
32706;DHT22;19094;50.972;3.538;2022-07-15T02:36:32;23.40;51.90
32706;DHT22;19094;50.972;3.538;2022-07-15T02:38:58;23.40;52.20
32706;DHT22;19094;50.972;3.538;2022-07-15T02:41:25;23.40;52.10
32706;DHT22;19094;50.972;3.538;2022-07-15T02:43:51;23.40;52.10
32706;DHT22;19094;50.972;3.538;2022-07-15T02:46:17;23.40;52.50
32706;DHT22;19094;50.972;3.538;2022-07-15T02:48:43;23.30;52.30
32706;DHT22;19094;50.972;3.538;2022-07-15T02:51:11;23.30;52.20
32706;DHT22;19094;50.972;3.538;2022-07-15T02:53:36;23.30;52.30
32706;DHT22;19094;50.972;3.538;2022-07-15T02:56:02;23.20;52.30
32706;DHT22;19094;50.972;3.538;2022-07-15T02:58:29;23.20;52.60
32706;DHT22;19094;50.972;3.538;2022-07-15T03:00:56;23.20;52.40
32706;DHT22;19094;50.972;3.538;2022-07-15T03:03:24;23.20;52.50
32706;DHT22;19094;50.972;3.538;2022-07-15T03:05:50;23.20;52.50
32706;DHT22;19094;50.972;3.538;2022-07-15T03:08:17;23.20;52.30
32706;DHT22;19094;50.972;3.538;2022-07-15T03:10:44;23.10;52.10
32706;DHT22;19094;50.972;3.538;2022-07-15T03:13:09;23.10;52.30
32706;DHT22;19094;50.972;3.538;2022-07-15T03:15:37;23.10;52.40
32706;DHT22;19094;50.972;3.538;2022-07-15T03:18:04;23.00;52.50
32706;DHT22;19094;50.972;3.538;2022-07-15T03:20:31;23.10;52.60
32706;DHT22;19094;50.972;3.538;2022-07-15T03:22:56;23.00;52.30
32706;DHT22;19094;50.972;3.538;2022-07-15T03:25:22;22.90;52.50
32706;DHT22;19094;50.972;3.538;2022-07-15T03:27:47;22.90;52.80
32706;DHT22;19094;50.972;3.538;2022-07-15T03:30:13;22.90;52.60
32706;DHT22;19094;50.972;3.538;2022-07-15T03:32:42;22.90;52.60
32706;DHT22;19094;50.972;3.538;2022-07-15T03:35:08;22.80;52.80
32706;DHT22;19094;50.972;3.538;2022-07-15T03:37:34;22.70;52.80
32706;DHT22;19094;50.972;3.538;2022-07-15T03:40:00;22.80;53.00
32706;DHT22;19094;50.972;3.538;2022-07-15T03:42:28;22.80;53.00
32706;DHT22;19094;50.972;3.538;2022-07-15T03:44:53;22.80;53.10
32706;DHT22;19094;50.972;3.538;2022-07-15T03:47:19;22.70;53.10
32706;DHT22;19094;50.972;3.538;2022-07-15T03:49:45;22.80;52.90
32706;DHT22;19094;50.972;3.538;2022-07-15T03:52:10;22.80;53.00
32706;DHT22;19094;50.972;3.538;2022-07-15T03:54:36;22.70;53.30
32706;DHT22;19094;50.972;3.538;2022-07-15T03:57:02;22.70;53.00
32706;DHT22;19094;50.972;3.538;2022-07-15T03:59:28;22.70;53.30
32706;DHT22;19094;50.972;3.538;2022-07-15T04:01:53;22.70;53.50
32706;DHT22;19094;50.972;3.538;2022-07-15T04:04:19;22.60;53.30
32706;DHT22;19094;50.972;3.538;2022-07-15T04:06:45;22.50;53.50
32706;DHT22;19094;50.972;3.538;2022-07-15T04:09:11;22.50;53.60
32706;DHT22;19094;50.972;3.538;2022-07-15T04:11:38;22.50;54.00
32706;DHT22;19094;50.972;3.538;2022-07-15T04:14:12;22.50;53.70
32706;DHT22;19094;50.972;3.538;2022-07-15T04:16:38;22.50;53.90
32706;DHT22;19094;50.972;3.538;2022-07-15T04:19:04;22.40;54.00
32706;DHT22;19094;50.972;3.538;2022-07-15T04:21:30;22.40;53.90
32706;DHT22;19094;50.972;3.538;2022-07-15T04:23:56;22.40;54.10
32706;DHT22;19094;50.972;3.538;2022-07-15T04:26:22;22.40;54.00
32706;DHT22;19094;50.972;3.538;2022-07-15T04:28:48;22.40;54.00
32706;DHT22;19094;50.972;3.538;2022-07-15T04:31:15;22.30;54.20
32706;DHT22;19094;50.972;3.538;2022-07-15T04:33:40;22.30;54.20
32706;DHT22;19094;50.972;3.538;2022-07-15T04:36:06;22.30;54.10
32706;DHT22;19094;50.972;3.538;2022-07-15T04:38:32;22.30;54.10
32706;DHT22;19094;50.972;3.538;2022-07-15T04:40:58;22.30;54.20
32706;DHT22;19094;50.972;3.538;2022-07-15T04:43:24;22.30;54.10
32706;DHT22;19094;50.972;3.538;2022-07-15T04:45:49;22.40;54.00
32706;DHT22;19094;50.972;3.538;2022-07-15T04:48:16;22.30;54.10
32706;DHT22;19094;50.972;3.538;2022-07-15T04:51:12;22.30;54.80
32706;DHT22;19094;50.972;3.538;2022-07-15T04:53:38;22.30;54.10
32706;DHT22;19094;50.972;3.538;2022-07-15T04:56:04;22.30;54.30
32706;DHT22;19094;50.972;3.538;2022-07-15T04:58:29;22.30;54.20
32706;DHT22;19094;50.972;3.538;2022-07-15T05:00:55;22.30;54.40
32706;DHT22;19094;50.972;3.538;2022-07-15T05:03:22;22.30;54.10
32706;DHT22;19094;50.972;3.538;2022-07-15T05:05:49;22.30;54.10
32706;DHT22;19094;50.972;3.538;2022-07-15T05:08:15;22.30;54.10
32706;DHT22;19094;50.972;3.538;2022-07-15T05:10:41;22.30;54.10
32706;DHT22;19094;50.972;3.538;2022-07-15T05:13:07;22.40;54.30
32706;DHT22;19094;50.972;3.538;2022-07-15T05:15:32;22.40;54.10
32706;DHT22;19094;50.972;3.538;2022-07-15T05:17:59;22.40;53.70
32706;DHT22;19094;50.972;3.538;2022-07-15T05:20:25;22.40;54.10
32706;DHT22;19094;50.972;3.538;2022-07-15T05:22:51;22.50;54.30
32706;DHT22;19094;50.972;3.538;2022-07-15T05:25:17;22.50;54.10
32706;DHT22;19094;50.972;3.538;2022-07-15T05:27:43;22.50;54.10
32706;DHT22;19094;50.972;3.538;2022-07-15T05:30:10;22.50;54.00
32706;DHT22;19094;50.972;3.538;2022-07-15T05:32:38;22.50;53.80
32706;DHT22;19094;50.972;3.538;2022-07-15T05:35:04;22.60;53.80
32706;DHT22;19094;50.972;3.538;2022-07-15T05:37:30;22.60;54.40
32706;DHT22;19094;50.972;3.538;2022-07-15T05:39:55;22.70;53.90
32706;DHT22;19094;50.972;3.538;2022-07-15T05:42:23;22.70;53.80
32706;DHT22;19094;50.972;3.538;2022-07-15T05:44:50;22.80;53.80
32706;DHT22;19094;50.972;3.538;2022-07-15T05:47:16;22.90;53.60
32706;DHT22;19094;50.972;3.538;2022-07-15T05:49:42;22.90;53.40
32706;DHT22;19094;50.972;3.538;2022-07-15T05:52:09;22.90;53.60
32706;DHT22;19094;50.972;3.538;2022-07-15T05:54:35;22.90;53.40
32706;DHT22;19094;50.972;3.538;2022-07-15T05:57:02;23.00;53.50
32706;DHT22;19094;50.972;3.538;2022-07-15T05:59:28;23.00;53.30
32706;DHT22;19094;50.972;3.538;2022-07-15T06:01:55;23.00;53.00
32706;DHT22;19094;50.972;3.538;2022-07-15T06:04:21;23.00;53.20
32706;DHT22;19094;50.972;3.538;2022-07-15T06:06:46;23.00;53.10
32706;DHT22;19094;50.972;3.538;2022-07-15T06:09:12;23.10;53.60
32706;DHT22;19094;50.972;3.538;2022-07-15T06:11:38;23.10;53.20
32706;DHT22;19094;50.972;3.538;2022-07-15T06:14:04;23.10;52.90
32706;DHT22;19094;50.972;3.538;2022-07-15T06:16:30;23.10;53.10
32706;DHT22;19094;50.972;3.538;2022-07-15T06:18:56;23.20;53.00
32706;DHT22;19094;50.972;3.538;2022-07-15T06:21:22;23.20;52.60
32706;DHT22;19094;50.972;3.538;2022-07-15T06:23:47;23.20;52.90
32706;DHT22;19094;50.972;3.538;2022-07-15T06:26:13;23.20;52.90
32706;DHT22;19094;50.972;3.538;2022-07-15T06:28:39;23.20;52.60
32706;DHT22;19094;50.972;3.538;2022-07-15T06:31:05;23.20;52.60
32706;DHT22;19094;50.972;3.538;2022-07-15T06:33:30;23.30;52.70
32706;DHT22;19094;50.972;3.538;2022-07-15T06:35:56;23.30;52.60
32706;DHT22;19094;50.972;3.538;2022-07-15T06:38:22;23.30;52.70
32706;DHT22;19094;50.972;3.538;2022-07-15T06:40:48;23.30;52.60
32706;DHT22;19094;50.972;3.538;2022-07-15T06:43:14;23.40;53.40
32706;DHT22;19094;50.972;3.538;2022-07-15T06:45:41;23.40;52.40
32706;DHT22;19094;50.972;3.538;2022-07-15T06:48:06;23.40;52.60
32706;DHT22;19094;50.972;3.538;2022-07-15T06:50:32;23.40;52.60
32706;DHT22;19094;50.972;3.538;2022-07-15T06:52:59;23.40;52.40
32706;DHT22;19094;50.972;3.538;2022-07-15T06:55:25;23.40;52.20
32706;DHT22;19094;50.972;3.538;2022-07-15T06:57:51;23.50;52.70
32706;DHT22;19094;50.972;3.538;2022-07-15T07:00:17;23.50;52.60
32706;DHT22;19094;50.972;3.538;2022-07-15T07:02:42;23.50;52.50
32706;DHT22;19094;50.972;3.538;2022-07-15T07:05:08;23.50;52.70
32706;DHT22;19094;50.972;3.538;2022-07-15T07:07:35;23.50;52.60
32706;DHT22;19094;50.972;3.538;2022-07-15T07:10:01;23.60;52.20
32706;DHT22;19094;50.972;3.538;2022-07-15T07:12:27;23.60;52.50
32706;DHT22;19094;50.972;3.538;2022-07-15T07:14:55;23.50;52.20
32706;DHT22;19094;50.972;3.538;2022-07-15T07:17:20;23.60;52.50
32706;DHT22;19094;50.972;3.538;2022-07-15T07:19:46;23.60;52.50
32706;DHT22;19094;50.972;3.538;2022-07-15T07:22:12;23.70;52.20
32706;DHT22;19094;50.972;3.538;2022-07-15T07:24:38;23.70;52.40
32706;DHT22;19094;50.972;3.538;2022-07-15T07:27:04;23.60;52.00
32706;DHT22;19094;50.972;3.538;2022-07-15T07:29:31;23.70;52.40
32706;DHT22;19094;50.972;3.538;2022-07-15T07:31:58;23.70;51.90
32706;DHT22;19094;50.972;3.538;2022-07-15T07:34:24;23.70;52.00
32706;DHT22;19094;50.972;3.538;2022-07-15T07:36:50;23.70;52.10
32706;DHT22;19094;50.972;3.538;2022-07-15T07:39:15;23.70;52.00
32706;DHT22;19094;50.972;3.538;2022-07-15T07:41:43;23.70;51.50
32706;DHT22;19094;50.972;3.538;2022-07-15T07:44:09;23.70;51.60
32706;DHT22;19094;50.972;3.538;2022-07-15T07:46:35;23.70;51.50
32706;DHT22;19094;50.972;3.538;2022-07-15T07:49:01;23.70;51.10
32706;DHT22;19094;50.972;3.538;2022-07-15T07:51:27;23.80;52.10
32706;DHT22;19094;50.972;3.538;2022-07-15T07:53:54;23.80;52.10
32706;DHT22;19094;50.972;3.538;2022-07-15T07:56:22;23.80;51.00
32706;DHT22;19094;50.972;3.538;2022-07-15T07:58:49;23.80;52.10
32706;DHT22;19094;50.972;3.538;2022-07-15T08:01:16;23.80;51.60
32706;DHT22;19094;50.972;3.538;2022-07-15T08:03:42;23.90;52.10
32706;DHT22;19094;50.972;3.538;2022-07-15T08:06:08;23.90;51.90
32706;DHT22;19094;50.972;3.538;2022-07-15T08:08:35;23.90;51.30
32706;DHT22;19094;50.972;3.538;2022-07-15T08:11:03;23.90;51.00
32706;DHT22;19094;50.972;3.538;2022-07-15T08:13:29;23.90;50.30
32706;DHT22;19094;50.972;3.538;2022-07-15T08:15:55;23.90;50.70
32706;DHT22;19094;50.972;3.538;2022-07-15T08:18:23;23.90;50.00
32706;DHT22;19094;50.972;3.538;2022-07-15T08:20:48;23.90;49.90
32706;DHT22;19094;50.972;3.538;2022-07-15T08:23:14;23.90;49.50
32706;DHT22;19094;50.972;3.538;2022-07-15T08:25:47;23.90;49.70
32706;DHT22;19094;50.972;3.538;2022-07-15T08:28:13;23.90;49.50
32706;DHT22;19094;50.972;3.538;2022-07-15T08:30:39;23.90;49.80
32706;DHT22;19094;50.972;3.538;2022-07-15T08:33:06;24.00;50.20
32706;DHT22;19094;50.972;3.538;2022-07-15T08:35:32;24.00;49.00
32706;DHT22;19094;50.972;3.538;2022-07-15T08:38:03;24.00;48.50
32706;DHT22;19094;50.972;3.538;2022-07-15T08:40:31;24.00;49.00
32706;DHT22;19094;50.972;3.538;2022-07-15T08:42:57;24.00;48.80
32706;DHT22;19094;50.972;3.538;2022-07-15T08:45:24;24.00;48.50
32706;DHT22;19094;50.972;3.538;2022-07-15T08:47:51;24.00;48.20
32706;DHT22;19094;50.972;3.538;2022-07-15T08:50:18;24.00;48.10
32706;DHT22;19094;50.972;3.538;2022-07-15T08:52:45;24.00;48.80
32706;DHT22;19094;50.972;3.538;2022-07-15T08:55:19;24.00;48.60
32706;DHT22;19094;50.972;3.538;2022-07-15T08:57:49;24.00;48.40
32706;DHT22;19094;50.972;3.538;2022-07-15T09:00:17;24.10;49.90
32706;DHT22;19094;50.972;3.538;2022-07-15T09:02:44;24.10;49.40
32706;DHT22;19094;50.972;3.538;2022-07-15T09:10:49;24.20;48.40
32706;DHT22;19094;50.972;3.538;2022-07-15T09:13:31;24.30;47.80
32706;DHT22;19094;50.972;3.538;2022-07-15T09:16:00;24.30;49.70
32706;DHT22;19094;50.972;3.538;2022-07-15T09:18:33;24.30;49.20
32706;DHT22;19094;50.972;3.538;2022-07-15T09:20:59;24.40;48.10
32706;DHT22;19094;50.972;3.538;2022-07-15T09:23:29;24.40;49.60
32706;DHT22;19094;50.972;3.538;2022-07-15T09:25:57;24.50;49.90
32706;DHT22;19094;50.972;3.538;2022-07-15T09:28:41;24.50;49.40
32706;DHT22;19094;50.972;3.538;2022-07-15T09:31:10;24.60;48.00
32706;DHT22;19094;50.972;3.538;2022-07-15T09:34:01;24.70;49.10
32706;DHT22;19094;50.972;3.538;2022-07-15T09:36:30;24.70;48.50
32706;DHT22;19094;50.972;3.538;2022-07-15T09:38:59;24.70;48.80
32706;DHT22;19094;50.972;3.538;2022-07-15T09:46:59;24.80;47.60
32706;DHT22;19094;50.972;3.538;2022-07-15T09:49:30;24.90;46.50
32706;DHT22;19094;50.972;3.538;2022-07-15T09:52:09;25.00;46.30
32706;DHT22;19094;50.972;3.538;2022-07-15T09:54:38;25.10;47.00
32706;DHT22;19094;50.972;3.538;2022-07-15T09:57:08;25.10;47.40
32706;DHT22;19094;50.972;3.538;2022-07-15T09:59:35;25.10;46.10
32706;DHT22;19094;50.972;3.538;2022-07-15T10:02:01;25.20;47.20
32706;DHT22;19094;50.972;3.538;2022-07-15T10:04:29;25.20;45.90
32706;DHT22;19094;50.972;3.538;2022-07-15T10:06:58;25.20;45.50
32706;DHT22;19094;50.972;3.538;2022-07-15T10:09:30;25.20;46.10
32706;DHT22;19094;50.972;3.538;2022-07-15T10:12:14;25.10;45.30
32706;DHT22;19094;50.972;3.538;2022-07-15T10:15:29;25.10;45.30
32706;DHT22;19094;50.972;3.538;2022-07-15T10:18:16;25.10;47.20
32706;DHT22;19094;50.972;3.538;2022-07-15T10:20:52;25.10;45.70
32706;DHT22;19094;50.972;3.538;2022-07-15T10:31:25;25.30;45.10
32706;DHT22;19094;50.972;3.538;2022-07-15T10:36:56;25.40;45.00
32706;DHT22;19094;50.972;3.538;2022-07-15T10:42:09;25.50;44.80
32706;DHT22;19094;50.972;3.538;2022-07-15T10:44:36;25.50;45.40
32706;DHT22;19094;50.972;3.538;2022-07-15T10:49:39;25.50;45.10
32706;DHT22;19094;50.972;3.538;2022-07-15T10:54:40;25.50;46.00
32706;DHT22;19094;50.972;3.538;2022-07-15T10:57:07;25.50;45.90
32706;DHT22;19094;50.972;3.538;2022-07-15T10:59:38;25.60;45.90
32706;DHT22;19094;50.972;3.538;2022-07-15T11:02:13;25.60;46.50
32706;DHT22;19094;50.972;3.538;2022-07-15T11:04:41;25.70;45.70
32706;DHT22;19094;50.972;3.538;2022-07-15T11:15:19;25.80;44.00
32706;DHT22;19094;50.972;3.538;2022-07-15T11:17:51;25.80;46.20
32706;DHT22;19094;50.972;3.538;2022-07-15T11:20:24;25.80;45.30
32706;DHT22;19094;50.972;3.538;2022-07-15T11:22:55;25.80;46.60
32706;DHT22;19094;50.972;3.538;2022-07-15T11:25:31;25.80;44.70
32706;DHT22;19094;50.972;3.538;2022-07-15T11:30:32;25.80;44.50
32706;DHT22;19094;50.972;3.538;2022-07-15T11:33:00;25.80;44.70
32706;DHT22;19094;50.972;3.538;2022-07-15T11:35:27;25.80;45.30
32706;DHT22;19094;50.972;3.538;2022-07-15T11:38:02;25.70;45.40
32706;DHT22;19094;50.972;3.538;2022-07-15T11:40:30;25.70;45.30
32706;DHT22;19094;50.972;3.538;2022-07-15T11:43:19;25.60;45.40
32706;DHT22;19094;50.972;3.538;2022-07-15T11:46:07;25.60;46.60
32706;DHT22;19094;50.972;3.538;2022-07-15T11:48:38;25.50;45.00
32706;DHT22;19094;50.972;3.538;2022-07-15T11:51:06;25.50;44.00
32706;DHT22;19094;50.972;3.538;2022-07-15T11:53:45;25.50;44.40
32706;DHT22;19094;50.972;3.538;2022-07-15T11:56:14;25.60;45.50
32706;DHT22;19094;50.972;3.538;2022-07-15T11:58:51;25.60;45.20
32706;DHT22;19094;50.972;3.538;2022-07-15T12:01:22;25.70;47.00
32706;DHT22;19094;50.972;3.538;2022-07-15T12:03:54;25.70;46.20
32706;DHT22;19094;50.972;3.538;2022-07-15T12:06:30;25.80;44.70
32706;DHT22;19094;50.972;3.538;2022-07-15T12:09:02;25.80;44.60
32706;DHT22;19094;50.972;3.538;2022-07-15T12:11:35;25.90;46.40
32706;DHT22;19094;50.972;3.538;2022-07-15T12:14:10;25.80;46.60
32706;DHT22;19094;50.972;3.538;2022-07-15T12:16:48;25.80;46.80
32706;DHT22;19094;50.972;3.538;2022-07-15T12:19:28;25.80;46.90
32706;DHT22;19094;50.972;3.538;2022-07-15T12:22:00;25.80;47.10
32706;DHT22;19094;50.972;3.538;2022-07-15T12:24:40;25.80;45.60
32706;DHT22;19094;50.972;3.538;2022-07-15T12:27:06;25.80;45.70
32706;DHT22;19094;50.972;3.538;2022-07-15T12:29:33;25.80;47.00
32706;DHT22;19094;50.972;3.538;2022-07-15T12:32:08;25.70;47.10
32706;DHT22;19094;50.972;3.538;2022-07-15T12:34:51;25.70;47.30
32706;DHT22;19094;50.972;3.538;2022-07-15T12:37:23;25.60;46.40
32706;DHT22;19094;50.972;3.538;2022-07-15T12:40:00;25.60;46.30
32706;DHT22;19094;50.972;3.538;2022-07-15T12:42:30;25.60;46.00
32706;DHT22;19094;50.972;3.538;2022-07-15T12:53:17;25.80;47.20
32706;DHT22;19094;50.972;3.538;2022-07-15T12:55:47;25.90;47.00
32706;DHT22;19094;50.972;3.538;2022-07-15T12:58:17;25.90;46.90
32706;DHT22;19094;50.972;3.538;2022-07-15T13:00:44;26.10;45.40
32706;DHT22;19094;50.972;3.538;2022-07-15T13:03:25;26.10;46.30
32706;DHT22;19094;50.972;3.538;2022-07-15T13:05:55;26.10;46.20
32706;DHT22;19094;50.972;3.538;2022-07-15T13:08:26;26.20;46.20
32706;DHT22;19094;50.972;3.538;2022-07-15T13:10:56;26.30;46.10
32706;DHT22;19094;50.972;3.538;2022-07-15T13:13:25;26.30;46.10
32706;DHT22;19094;50.972;3.538;2022-07-15T13:15:53;26.40;44.50
32706;DHT22;19094;50.972;3.538;2022-07-15T13:18:19;26.60;44.40
32706;DHT22;19094;50.972;3.538;2022-07-15T13:20:51;26.70;43.80
32706;DHT22;19094;50.972;3.538;2022-07-15T13:23:17;26.80;42.70
32706;DHT22;19094;50.972;3.538;2022-07-15T13:25:43;26.90;44.60
32706;DHT22;19094;50.972;3.538;2022-07-15T13:28:10;27.10;43.50
32706;DHT22;19094;50.972;3.538;2022-07-15T13:30:37;27.10;44.50
32706;DHT22;19094;50.972;3.538;2022-07-15T13:33:04;27.20;43.40
32706;DHT22;19094;50.972;3.538;2022-07-15T13:35:30;27.20;44.50
32706;DHT22;19094;50.972;3.538;2022-07-15T13:37:57;27.10;44.60
32706;DHT22;19094;50.972;3.538;2022-07-15T13:40:22;27.00;44.70
32706;DHT22;19094;50.972;3.538;2022-07-15T13:42:49;27.00;44.80
32706;DHT22;19094;50.972;3.538;2022-07-15T13:45:17;27.10;41.90
32706;DHT22;19094;50.972;3.538;2022-07-15T13:47:44;27.20;42.10
32706;DHT22;19094;50.972;3.538;2022-07-15T13:50:11;27.30;43.80
32706;DHT22;19094;50.972;3.538;2022-07-15T13:52:57;27.30;44.00
32706;DHT22;19094;50.972;3.538;2022-07-15T13:55:25;27.30;43.70
32706;DHT22;19094;50.972;3.538;2022-07-15T13:57:50;27.10;44.50
32706;DHT22;19094;50.972;3.538;2022-07-15T14:00:19;27.10;44.00
32706;DHT22;19094;50.972;3.538;2022-07-15T14:02:49;27.10;43.20
32706;DHT22;19094;50.972;3.538;2022-07-15T14:05:15;27.20;42.30
32706;DHT22;19094;50.972;3.538;2022-07-15T14:07:43;27.10;43.80
32706;DHT22;19094;50.972;3.538;2022-07-15T14:10:10;27.10;44.00
32706;DHT22;19094;50.972;3.538;2022-07-15T14:12:36;27.00;44.90
32706;DHT22;19094;50.972;3.538;2022-07-15T14:15:03;27.00;43.30
32706;DHT22;19094;50.972;3.538;2022-07-15T14:17:31;27.00;44.20
32706;DHT22;19094;50.972;3.538;2022-07-15T14:19:59;27.10;43.80
32706;DHT22;19094;50.972;3.538;2022-07-15T14:22:26;27.20;44.10
32706;DHT22;19094;50.972;3.538;2022-07-15T14:24:53;27.30;43.20
32706;DHT22;19094;50.972;3.538;2022-07-15T14:27:20;27.40;43.00
32706;DHT22;19094;50.972;3.538;2022-07-15T14:29:46;27.30;44.20
32706;DHT22;19094;50.972;3.538;2022-07-15T14:32:13;27.30;43.70
32706;DHT22;19094;50.972;3.538;2022-07-15T14:34:40;27.50;41.70
32706;DHT22;19094;50.972;3.538;2022-07-15T14:37:05;27.50;43.80
32706;DHT22;19094;50.972;3.538;2022-07-15T14:39:32;27.40;44.10
32706;DHT22;19094;50.972;3.538;2022-07-15T14:42:00;27.40;43.60
32706;DHT22;19094;50.972;3.538;2022-07-15T14:44:26;27.50;43.30
32706;DHT22;19094;50.972;3.538;2022-07-15T14:46:54;27.50;43.80
32706;DHT22;19094;50.972;3.538;2022-07-15T14:49:22;27.50;44.00
32706;DHT22;19094;50.972;3.538;2022-07-15T14:51:49;27.40;44.10
32706;DHT22;19094;50.972;3.538;2022-07-15T14:54:15;27.40;43.80
32706;DHT22;19094;50.972;3.538;2022-07-15T14:56:42;27.40;44.30
32706;DHT22;19094;50.972;3.538;2022-07-15T14:59:07;27.30;44.50
32706;DHT22;19094;50.972;3.538;2022-07-15T15:01:33;27.30;44.50
32706;DHT22;19094;50.972;3.538;2022-07-15T15:03:59;27.20;44.50
32706;DHT22;19094;50.972;3.538;2022-07-15T15:06:24;27.20;44.30
32706;DHT22;19094;50.972;3.538;2022-07-15T15:08:50;27.20;43.10
32706;DHT22;19094;50.972;3.538;2022-07-15T15:11:17;27.30;44.10
32706;DHT22;19094;50.972;3.538;2022-07-15T15:13:43;27.40;42.50
32706;DHT22;19094;50.972;3.538;2022-07-15T15:16:10;27.40;43.80
32706;DHT22;19094;50.972;3.538;2022-07-15T15:18:36;27.40;44.00
32706;DHT22;19094;50.972;3.538;2022-07-15T15:21:01;27.50;43.90
32706;DHT22;19094;50.972;3.538;2022-07-15T15:23:29;27.60;43.70
32706;DHT22;19094;50.972;3.538;2022-07-15T15:25:56;27.60;42.80
32706;DHT22;19094;50.972;3.538;2022-07-15T15:28:40;27.70;43.00
32706;DHT22;19094;50.972;3.538;2022-07-15T15:31:06;27.70;43.60
32706;DHT22;19094;50.972;3.538;2022-07-15T15:33:32;27.60;43.50
32706;DHT22;19094;50.972;3.538;2022-07-15T15:35:58;27.80;42.10
32706;DHT22;19094;50.972;3.538;2022-07-15T15:38:25;27.80;43.30
32706;DHT22;19094;50.972;3.538;2022-07-15T15:40:51;27.80;43.30
32706;DHT22;19094;50.972;3.538;2022-07-15T15:43:18;27.90;43.00
32706;DHT22;19094;50.972;3.538;2022-07-15T15:45:43;28.00;42.70
32706;DHT22;19094;50.972;3.538;2022-07-15T15:48:11;28.00;42.40
32706;DHT22;19094;50.972;3.538;2022-07-15T15:50:37;28.10;42.70
32706;DHT22;19094;50.972;3.538;2022-07-15T15:53:03;28.10;42.20
32706;DHT22;19094;50.972;3.538;2022-07-15T15:55:28;28.20;41.20
32706;DHT22;19094;50.972;3.538;2022-07-15T15:57:55;28.40;40.90
32706;DHT22;19094;50.972;3.538;2022-07-15T16:00:23;28.40;41.90
32706;DHT22;19094;50.972;3.538;2022-07-15T16:02:48;28.50;41.60
32706;DHT22;19094;50.972;3.538;2022-07-15T16:05:15;28.50;41.50
32706;DHT22;19094;50.972;3.538;2022-07-15T16:07:42;28.50;42.50
32706;DHT22;19094;50.972;3.538;2022-07-15T16:10:09;28.50;41.40
32706;DHT22;19094;50.972;3.538;2022-07-15T16:12:39;28.60;41.00
32706;DHT22;19094;50.972;3.538;2022-07-15T16:15:05;28.50;41.70
32706;DHT22;19094;50.972;3.538;2022-07-15T16:17:31;28.60;41.50
32706;DHT22;19094;50.972;3.538;2022-07-15T16:19:57;28.70;41.10
32706;DHT22;19094;50.972;3.538;2022-07-15T16:22:23;28.90;40.50
32706;DHT22;19094;50.972;3.538;2022-07-15T16:25:08;28.90;40.90